createdAt,value
2023-02-05T00:01:53.150Z,52549.97
2023-02-05T00:04:24.662Z,52576.49
2023-02-05T00:06:55.818Z,52571.67
2023-02-05T00:09:28.664Z,52569.26
2023-02-05T00:12:00.225Z,52564.44
2023-02-05T00:14:31.815Z,52573.68
2023-02-05T00:17:04.970Z,52568.86
2023-02-05T00:19:36.831Z,52576.49
2023-02-05T00:22:08.337Z,52548.36
2023-02-05T00:24:41.061Z,52556.80
2023-02-05T00:27:12.245Z,52555.20
2023-02-05T00:29:43.734Z,52576.49
2023-02-05T00:32:14.907Z,52563.23
2023-02-05T00:34:46.158Z,52563.23
2023-02-05T00:37:17.764Z,52565.24
2023-02-05T00:39:49.255Z,52562.83
2023-02-05T00:42:20.568Z,52561.63
2023-02-05T00:44:52.265Z,52534.29
2023-02-05T00:47:23.663Z,52556.40
2023-02-05T00:49:54.577Z,52549.97
2023-02-05T00:52:26.044Z,52558.01
2023-02-05T00:54:57.670Z,52538.31
2023-02-05T00:57:29.098Z,52566.85
2023-02-05T01:00:00.438Z,52563.23
2023-02-05T01:02:32.193Z,52556.40
2023-02-05T01:05:03.655Z,52556.00
2023-02-05T01:07:35.341Z,52555.20
2023-02-05T01:10:07.023Z,52554.79
2023-02-05T01:12:38.334Z,52550.37
2023-02-05T01:15:10.490Z,52567.65
2023-02-05T01:17:41.848Z,52552.38
2023-02-05T01:20:13.829Z,52566.05
2023-02-05T01:22:45.004Z,52550.77
2023-02-05T01:25:16.513Z,52564.84
2023-02-05T01:27:49.442Z,52551.98
2023-02-05T01:30:21.825Z,52566.45
2023-02-05T01:32:53.219Z,52562.02
2023-02-05T01:35:24.614Z,52538.31
2023-02-05T01:37:55.852Z,52551.58
2023-02-05T01:40:27.427Z,52543.14
2023-02-05T01:42:58.738Z,52543.14
2023-02-05T01:45:52.605Z,52540.32
2023-02-05T01:48:24.536Z,52544.74
2023-02-05T01:50:57.089Z,52527.06
2023-02-05T01:53:30.909Z,52523.45
2023-02-05T01:56:03.957Z,52544.34
2023-02-05T01:58:39.645Z,52543.14
2023-02-05T02:01:11.497Z,52547.96
2023-02-05T02:03:43.264Z,52529.88
2023-02-05T02:06:15.242Z,52535.10
2023-02-05T02:08:47.488Z,52544.75
2023-02-05T02:11:22.836Z,52523.45
2023-02-05T02:13:54.800Z,52537.51
2023-02-05T02:16:26.950Z,52536.71
2023-02-05T02:18:59.946Z,52535.50
2023-02-05T02:21:42.960Z,52543.14
2023-02-05T02:24:18.532Z,52543.95
2023-02-05T02:26:55.193Z,52541.52
2023-02-05T02:29:27.830Z,52534.70
2023-02-05T02:32:01.182Z,52546.35
2023-02-05T02:34:33.049Z,52544.74
2023-02-05T02:37:06.150Z,52528.67
2023-02-05T02:39:39.119Z,52529.88
2023-02-05T02:42:11.367Z,52526.26
2023-02-05T02:44:43.926Z,52533.49
2023-02-05T02:47:15.828Z,52540.73
2023-02-05T02:49:48.680Z,52550.38
2023-02-05T02:52:20.392Z,52544.34
2023-02-05T02:54:51.933Z,52548.36
2023-02-05T02:57:24.470Z,52527.87
2023-02-05T02:59:56.628Z,52546.36
2023-02-05T03:02:29.418Z,52540.32
2023-02-05T03:05:03.120Z,52533.89
2023-02-05T03:07:35.605Z,52542.33
2023-02-05T03:10:08.580Z,52548.76
2023-02-05T03:12:44.060Z,52540.32
2023-02-05T03:15:15.487Z,52538.72
2023-02-05T03:17:47.003Z,52536.30
2023-02-05T03:20:18.999Z,52541.93
2023-02-05T03:22:50.866Z,52564.84
2023-02-05T03:25:22.702Z,52549.97
2023-02-05T03:27:55.547Z,52554.79
2023-02-05T03:30:29.321Z,52548.36
2023-02-05T03:33:02.518Z,52543.94
2023-02-05T03:35:35.621Z,52539.12
2023-02-05T03:38:11.745Z,52539.93
2023-02-05T03:40:45.359Z,52553.59
2023-02-05T03:43:17.340Z,52544.34
2023-02-05T03:45:51.502Z,52556.00
2023-02-05T03:48:28.395Z,52556.00
2023-02-05T03:51:01.171Z,52535.10
2023-02-05T03:53:34.952Z,52539.52
2023-02-05T03:56:07.161Z,52535.50
2023-02-05T03:58:41.226Z,52545.55
2023-02-05T04:01:13.153Z,52561.23
2023-02-05T04:03:45.748Z,52555.20
2023-02-05T04:06:17.757Z,52553.99
2023-02-05T04:08:50.004Z,52541.13
2023-02-05T04:11:22.343Z,52513.80
2023-02-05T04:13:54.723Z,52535.50
2023-02-05T04:16:26.286Z,52548.76
2023-02-05T04:18:57.670Z,52549.57
2023-02-05T04:21:29.381Z,52559.21
2023-02-05T04:24:00.738Z,52539.92
2023-02-05T04:26:33.668Z,52547.56
2023-02-05T04:29:07.471Z,52551.18
2023-02-05T04:31:44.966Z,52550.77
2023-02-05T04:34:16.628Z,52552.38
2023-02-05T04:36:48.586Z,52539.52
2023-02-05T04:39:19.935Z,52562.83
2023-02-05T04:41:51.376Z,52536.30
2023-02-05T04:44:22.663Z,52542.74
2023-02-05T04:46:53.970Z,52533.49
2023-02-05T04:49:25.429Z,52538.72
2023-02-05T04:51:56.801Z,52553.19
2023-02-05T04:54:28.590Z,52539.12
2023-02-05T04:56:59.805Z,52546.76
2023-02-05T04:59:31.811Z,52546.76
2023-02-05T05:02:03.008Z,52551.57
2023-02-05T05:04:34.437Z,52547.16
2023-02-05T05:07:06.392Z,52531.89
2023-02-05T05:09:37.439Z,52541.94
2023-02-05T05:12:09.158Z,52532.69
2023-02-05T05:14:40.880Z,52532.29
2023-02-05T05:17:12.957Z,52534.30
2023-02-05T05:19:44.145Z,52529.07
2023-02-05T05:22:15.678Z,52543.54
2023-02-05T05:24:46.764Z,52543.14
2023-02-05T05:27:19.997Z,52531.08
2023-02-05T05:29:51.037Z,52553.19
2023-02-05T05:32:22.341Z,52533.89
2023-02-05T05:34:53.527Z,52553.99
2023-02-05T05:37:24.976Z,52532.69
2023-02-05T05:40:13.857Z,52535.10
2023-02-05T05:43:03.047Z,52538.31
2023-02-05T05:45:34.749Z,52524.25
2023-02-05T05:48:06.829Z,52547.56
2023-02-05T05:50:38.228Z,52542.33
2023-02-05T05:53:09.174Z,52547.55
2023-02-05T05:55:40.965Z,52551.18
2023-02-05T05:58:12.497Z,52547.16
2023-02-05T06:00:43.546Z,52537.91
2023-02-05T06:03:15.425Z,52529.07
2023-02-05T06:05:46.646Z,52533.49
2023-02-05T06:08:18.572Z,52536.71
2023-02-05T06:10:49.933Z,52529.88
2023-02-05T06:13:21.142Z,52543.54
2023-02-05T06:15:52.230Z,52529.07
2023-02-05T06:18:26.644Z,52531.08
2023-02-05T06:20:57.551Z,52518.63
2023-02-05T06:23:28.810Z,52533.49
2023-02-05T06:26:00.021Z,52517.42
2023-02-05T06:28:31.266Z,52526.26
2023-02-05T06:31:02.302Z,52528.67
2023-02-05T06:33:34.394Z,52533.89
2023-02-05T06:36:05.830Z,52527.06
2023-02-05T06:38:36.842Z,52518.63
2023-02-05T06:41:08.208Z,52527.46
2023-02-05T06:43:39.478Z,52532.69
2023-02-05T06:46:10.786Z,52523.04
2023-02-05T06:48:41.898Z,52527.86
2023-02-05T06:51:13.675Z,52533.09
2023-02-05T06:53:45.220Z,52522.64
2023-02-05T06:56:16.313Z,52512.59
2023-02-05T06:58:47.804Z,52533.09
2023-02-05T07:01:19.191Z,52522.64
2023-02-05T07:03:54.576Z,52530.27
2023-02-05T07:06:25.948Z,52530.27
2023-02-05T07:08:57.019Z,52517.82
2023-02-05T07:11:28.363Z,52515.80
2023-02-05T07:13:59.446Z,52518.22
2023-02-05T07:16:30.632Z,52518.62
2023-02-05T07:19:01.789Z,52533.49
2023-02-05T07:21:33.289Z,52507.37
2023-02-05T07:24:04.979Z,52506.16
2023-02-05T07:26:36.427Z,52504.15
2023-02-05T07:29:07.369Z,52513.80
2023-02-05T07:31:38.890Z,52504.55
2023-02-05T07:34:10.469Z,52505.76
2023-02-05T07:36:41.753Z,52515.41
2023-02-05T07:39:12.730Z,52514.20
2023-02-05T07:41:43.862Z,52501.34
2023-02-05T07:44:18.949Z,52512.20
2023-02-05T07:46:50.595Z,52504.15
2023-02-05T07:49:21.776Z,52501.34
2023-02-05T07:51:52.865Z,52502.95
2023-02-05T07:54:24.897Z,52519.43
2023-02-05T07:56:56.693Z,52535.50
2023-02-05T07:59:27.734Z,52519.02
2023-02-05T08:01:59.400Z,52508.57
2023-02-05T08:04:32.079Z,52505.36
2023-02-05T08:07:03.813Z,52513.39
2023-02-05T08:09:34.966Z,52513.80
2023-02-05T08:12:09.441Z,52506.56
2023-02-05T08:14:40.628Z,52507.37
2023-02-05T08:17:11.997Z,52496.92
2023-02-05T08:19:43.499Z,52500.14
2023-02-05T08:22:14.538Z,52494.91
2023-02-05T08:24:45.727Z,52495.31
2023-02-05T08:27:19.857Z,52477.63
2023-02-05T08:29:57.406Z,52472.41
2023-02-05T08:32:28.883Z,52495.31
2023-02-05T08:35:00.204Z,52482.05
2023-02-05T08:37:35.701Z,52482.05
2023-02-05T08:40:07.677Z,52462.76
2023-02-05T08:42:39.612Z,52481.25
2023-02-05T08:45:11.596Z,52482.86
2023-02-05T08:47:43.007Z,52479.64
2023-02-05T08:50:14.031Z,52472.01
2023-02-05T08:52:45.502Z,52486.47
2023-02-05T08:55:18.508Z,52485.67
2023-02-05T08:57:49.953Z,52462.36
2023-02-05T09:00:21.779Z,52484.86
2023-02-05T09:02:53.323Z,52472.00
2023-02-05T09:05:24.579Z,52466.77
2023-02-05T09:07:55.704Z,52461.55
2023-02-05T09:10:29.925Z,52457.13
2023-02-05T09:13:01.127Z,52468.39
2023-02-05T09:15:32.961Z,52461.15
2023-02-05T09:18:04.843Z,52466.77
2023-02-05T09:20:37.294Z,52482.05
2023-02-05T09:23:08.922Z,52455.13
2023-02-05T09:25:40.394Z,52466.77
2023-02-05T09:28:12.212Z,52452.71
2023-02-05T09:30:43.805Z,52469.99
2023-02-05T09:33:15.828Z,52461.15
2023-02-05T09:35:47.130Z,52463.16
2023-02-05T09:38:18.894Z,52469.99
2023-02-05T09:40:52.396Z,52468.38
2023-02-05T09:43:31.950Z,52478.84
2023-02-05T09:46:05.144Z,52481.65
2023-02-05T09:48:51.060Z,52508.18
2023-02-05T09:51:24.879Z,52482.05
2023-02-05T09:53:57.662Z,52479.64
2023-02-05T09:56:28.935Z,52481.24
2023-02-05T09:59:00.815Z,52486.07
2023-02-05T10:01:34.617Z,52476.82
2023-02-05T10:04:08.183Z,52466.77
2023-02-05T10:06:45.345Z,52486.88
2023-02-05T10:09:27.349Z,52482.45
2023-02-05T10:12:00.480Z,52488.48
2023-02-05T10:14:34.065Z,52488.07
2023-02-05T10:17:12.271Z,52485.66
2023-02-05T10:19:59.648Z,52479.64
2023-02-05T10:22:31.660Z,52470.79
2023-02-05T10:25:19.583Z,52474.41
2023-02-05T10:27:53.210Z,52468.79
2023-02-05T10:30:26.289Z,52478.83
2023-02-05T10:32:59.330Z,52469.99
2023-02-05T10:35:34.799Z,52476.82
2023-02-05T10:38:07.201Z,52486.47
2023-02-05T10:40:40.851Z,52498.13
2023-02-05T10:43:16.030Z,52493.71
2023-02-05T10:45:47.385Z,52494.11
2023-02-05T10:48:24.020Z,52497.73
2023-02-05T10:50:56.704Z,52505.76
2023-02-05T10:53:28.636Z,52500.54
2023-02-05T10:56:00.290Z,52502.54
2023-02-05T10:58:39.341Z,52502.55
2023-02-05T11:01:13.385Z,52500.14
2023-02-05T11:03:45.025Z,52492.90
2023-02-05T11:06:16.583Z,52498.93
2023-02-05T11:08:47.638Z,52506.16
2023-02-05T11:11:28.848Z,52505.76
2023-02-05T11:14:00.598Z,52494.11
2023-02-05T11:16:37.764Z,52489.69
2023-02-05T11:19:15.195Z,52502.95
2023-02-05T11:21:50.476Z,52501.34
2023-02-05T11:24:25.675Z,52509.38
2023-02-05T11:27:14.145Z,52500.14
2023-02-05T11:29:45.861Z,52479.24
2023-02-05T11:32:23.337Z,52503.35
2023-02-05T11:34:54.397Z,52488.07
2023-02-05T11:37:25.519Z,52504.55
2023-02-05T11:39:56.371Z,52518.22
2023-02-05T11:42:28.250Z,52490.89
2023-02-05T11:44:59.971Z,52508.98
2023-02-05T11:47:31.905Z,52516.21
2023-02-05T11:50:03.026Z,52496.11
2023-02-05T11:52:35.103Z,52500.14
2023-02-05T11:55:08.665Z,52512.19
2023-02-05T11:57:42.677Z,52502.54
2023-02-05T12:00:23.521Z,52495.31
2023-02-05T12:02:54.941Z,52501.74
2023-02-05T12:05:28.043Z,52488.07
2023-02-05T12:08:00.583Z,52510.19
2023-02-05T12:10:34.313Z,52494.51
2023-02-05T12:13:09.001Z,52492.90
2023-02-05T12:15:43.325Z,52510.58
2023-02-05T12:18:18.391Z,52496.91
2023-02-05T12:20:58.676Z,52493.30
2023-02-05T12:23:43.956Z,52515.81
2023-02-05T12:26:23.951Z,52500.54
2023-02-05T12:28:58.656Z,52512.59
2023-02-05T12:31:32.353Z,52495.71
2023-02-05T12:34:10.701Z,52498.13
2023-02-05T12:36:45.921Z,52525.05
2023-02-05T12:39:20.354Z,52498.52
2023-02-05T12:41:53.101Z,52498.13
2023-02-05T12:44:32.300Z,52510.59
2023-02-05T12:47:06.718Z,52517.41
2023-02-05T12:49:44.894Z,52508.98
2023-02-05T12:52:23.130Z,52512.20
2023-02-05T12:55:05.872Z,52512.20
2023-02-05T12:57:39.171Z,52486.88
2023-02-05T13:00:15.191Z,52517.82
2023-02-05T13:02:49.569Z,52501.74
2023-02-05T13:05:24.270Z,52504.96
2023-02-05T13:07:57.063Z,52513.39
2023-02-05T13:10:29.028Z,52508.98
2023-02-05T13:13:02.108Z,52488.48
2023-02-05T13:15:34.550Z,52505.36
2023-02-05T13:18:07.368Z,52523.45
2023-02-05T13:20:57.265Z,52528.27
2023-02-05T13:23:46.710Z,52519.82
2023-02-05T13:26:35.744Z,52506.57
2023-02-05T13:29:07.734Z,52525.05
2023-02-05T13:31:39.653Z,52510.18
2023-02-05T13:34:11.453Z,52514.20
2023-02-05T13:36:57.542Z,52524.25
2023-02-05T13:39:39.795Z,52517.01
2023-02-05T13:42:16.515Z,52507.77
2023-02-05T13:44:57.569Z,52523.04
2023-02-05T13:47:45.849Z,52503.75
2023-02-05T13:50:33.534Z,52507.77
2023-02-05T13:53:17.686Z,52521.04
2023-02-05T13:55:57.273Z,52518.22
2023-02-05T13:58:28.859Z,52515.01
2023-02-05T14:01:01.592Z,52509.79
2023-02-05T14:03:35.764Z,52525.45
2023-02-05T14:06:21.995Z,52516.21
2023-02-05T14:08:57.943Z,52516.61
2023-02-05T14:11:30.722Z,52531.08
2023-02-05T14:14:30.711Z,52510.18
2023-02-05T14:17:25.630Z,52502.54
2023-02-05T14:20:01.275Z,52532.69
2023-02-05T14:22:37.399Z,52514.20
2023-02-05T14:25:22.391Z,52523.45
2023-02-05T14:27:55.688Z,52502.95
2023-02-05T14:30:46.273Z,52510.18
2023-02-05T14:33:31.912Z,52516.21
2023-02-05T14:36:16.472Z,52532.29
2023-02-05T14:38:54.350Z,52522.64
2023-02-05T14:41:26.165Z,52536.30
2023-02-05T14:43:57.671Z,52505.76
2023-02-05T14:46:30.720Z,52530.27
2023-02-05T14:49:01.985Z,52527.46
2023-02-05T14:51:34.178Z,52536.30
2023-02-05T14:54:05.847Z,52546.35
2023-02-05T14:56:39.756Z,52532.29
2023-02-05T14:59:25.072Z,52532.69
2023-02-05T15:01:56.496Z,52527.86
2023-02-05T15:04:29.582Z,52532.29
2023-02-05T15:07:00.890Z,52539.52
2023-02-05T15:09:37.941Z,52519.02
2023-02-05T15:12:22.193Z,52543.54
2023-02-05T15:14:54.333Z,52524.65
2023-02-05T15:17:43.264Z,52541.53
2023-02-05T15:20:22.128Z,52539.52
2023-02-05T15:22:55.656Z,52534.70
2023-02-05T15:25:40.833Z,52531.08
2023-02-05T15:28:22.264Z,52515.01
2023-02-05T15:30:58.716Z,52518.23
2023-02-05T15:33:36.085Z,52515.41
2023-02-05T15:36:09.179Z,52521.03
2023-02-05T15:38:45.132Z,52539.52
2023-02-05T15:41:17.175Z,52537.91
2023-02-05T15:44:00.751Z,52537.51
2023-02-05T15:46:35.299Z,52532.29
2023-02-05T15:49:09.621Z,52522.24
2023-02-05T15:51:44.242Z,52537.51
2023-02-05T15:54:21.376Z,52542.34
2023-02-05T15:56:54.019Z,52532.28
2023-02-05T15:59:25.702Z,52543.14
2023-02-05T16:02:07.658Z,52538.72
2023-02-05T16:05:03.000Z,52543.95
2023-02-05T16:07:46.762Z,52543.14
2023-02-05T16:10:22.680Z,52543.54
2023-02-05T16:13:01.575Z,52541.93
2023-02-05T16:15:36.387Z,52538.72
2023-02-05T16:18:08.738Z,52523.84
2023-02-05T16:20:42.245Z,52538.71
2023-02-05T16:23:15.885Z,52518.22
2023-02-05T16:25:48.896Z,52546.36
2023-02-05T16:28:23.446Z,52528.67
2023-02-05T16:30:55.788Z,52539.12
2023-02-05T16:33:30.474Z,52533.09
2023-02-05T16:36:04.939Z,52533.89
2023-02-05T16:38:37.212Z,52545.95
2023-02-05T16:41:19.264Z,52531.08
2023-02-05T16:43:52.018Z,52545.55
2023-02-05T16:46:24.199Z,52532.69
2023-02-05T16:48:56.109Z,52530.68
2023-02-05T16:51:33.332Z,52538.72
2023-02-05T16:54:09.316Z,52535.10
2023-02-05T16:56:47.904Z,52553.59
2023-02-05T16:59:29.164Z,52536.71
2023-02-05T17:02:01.607Z,52532.69
2023-02-05T17:04:35.594Z,52541.93
2023-02-05T17:07:16.825Z,52545.15
2023-02-05T17:09:47.799Z,52533.09
2023-02-05T17:12:36.645Z,52530.27
2023-02-05T17:15:26.759Z,52537.51
2023-02-05T17:17:59.804Z,52554.39
2023-02-05T17:20:33.862Z,52531.88
2023-02-05T17:23:10.533Z,52553.18
2023-02-05T17:25:44.646Z,52541.53
2023-02-05T17:28:19.034Z,52533.09
2023-02-05T17:30:51.782Z,52539.52
2023-02-05T17:33:24.385Z,52542.74
2023-02-05T17:36:05.135Z,52541.93
2023-02-05T17:38:44.514Z,52539.12
2023-02-05T17:41:35.765Z,52524.25
2023-02-05T17:44:36.886Z,52531.08
2023-02-05T17:47:10.347Z,52539.92
2023-02-05T17:49:46.293Z,52530.27
2023-02-05T17:52:18.744Z,52528.26
2023-02-05T17:54:53.511Z,52537.51
2023-02-05T17:57:27.712Z,52519.82
2023-02-05T17:59:59.413Z,52542.33
2023-02-05T18:02:31.177Z,52543.54
2023-02-05T18:05:02.768Z,52525.05
2023-02-05T18:07:35.244Z,52541.93
2023-02-05T18:10:08.853Z,52535.10
2023-02-05T18:12:42.182Z,52545.14
2023-02-05T18:15:14.028Z,52536.71
2023-02-05T18:17:45.534Z,52537.91
2023-02-05T18:20:18.138Z,52523.45
2023-02-05T18:22:50.548Z,52520.63
2023-02-05T18:25:22.001Z,52535.10
2023-02-05T18:27:53.342Z,52537.11
2023-02-05T18:30:24.898Z,52534.70
2023-02-05T18:32:56.080Z,52536.71
2023-02-05T18:35:27.431Z,52521.84
2023-02-05T18:37:58.403Z,52537.11
2023-02-05T18:40:29.794Z,52521.44
2023-02-05T18:43:00.840Z,52541.13
2023-02-05T18:45:32.182Z,52554.79
2023-02-05T18:48:04.125Z,52539.12
2023-02-05T18:50:35.929Z,52538.72
2023-02-05T18:53:07.205Z,52534.70
2023-02-05T18:55:38.337Z,52537.91
2023-02-05T18:58:09.834Z,52537.51
2023-02-05T19:00:41.255Z,52551.58
2023-02-05T19:03:12.305Z,52538.32
2023-02-05T19:05:43.565Z,52551.18
2023-02-05T19:08:15.795Z,52532.29
2023-02-05T19:10:47.896Z,52540.32
2023-02-05T19:13:19.502Z,52529.07
2023-02-05T19:15:51.717Z,52537.91
2023-02-05T19:18:24.396Z,52549.57
2023-02-05T19:20:55.856Z,52542.34
2023-02-05T19:23:26.995Z,52543.14
2023-02-05T19:25:58.208Z,52538.31
2023-02-05T19:28:32.547Z,52544.34
2023-02-05T19:31:05.016Z,52521.84
2023-02-05T19:33:36.343Z,52529.48
2023-02-05T19:36:07.891Z,52552.78
2023-02-05T19:38:39.532Z,52531.88
2023-02-05T19:41:11.028Z,52544.74
2023-02-05T19:43:43.630Z,52531.08
2023-02-05T19:46:15.107Z,52549.16
2023-02-05T19:48:46.227Z,52552.38
2023-02-05T19:51:17.973Z,52545.54
2023-02-05T19:53:50.461Z,52535.90
2023-02-05T19:56:22.852Z,52539.93
2023-02-05T19:58:55.204Z,52543.54
2023-02-05T20:01:26.896Z,52542.74
2023-02-05T20:04:00.011Z,52547.96
2023-02-05T20:06:31.596Z,52546.76
2023-02-05T20:09:10.538Z,52531.08
2023-02-05T20:11:42.934Z,52546.36
2023-02-05T20:14:14.317Z,52539.12
2023-02-05T20:16:46.046Z,52519.82
2023-02-05T20:19:17.857Z,52542.33
2023-02-05T20:21:49.804Z,52547.96
2023-02-05T20:24:22.122Z,52527.46
2023-02-05T20:26:53.222Z,52533.89
2023-02-05T20:29:41.859Z,52556.40
2023-02-05T20:32:12.888Z,52529.07
2023-02-05T20:34:48.179Z,52539.12
2023-02-05T20:37:20.700Z,52545.54
2023-02-05T20:39:52.365Z,52537.51
2023-02-05T20:42:23.457Z,52518.22
2023-02-05T20:44:55.285Z,52534.30
2023-02-05T20:47:27.274Z,52548.36
2023-02-05T20:49:58.791Z,52514.60
2023-02-05T20:52:30.119Z,52521.03
2023-02-05T20:55:02.939Z,52551.18
2023-02-05T20:57:36.185Z,52535.10
2023-02-05T21:00:09.443Z,52551.98
2023-02-05T21:02:42.524Z,52530.68
2023-02-05T21:05:15.393Z,52539.93
2023-02-05T21:07:47.502Z,52541.53
2023-02-05T21:10:19.931Z,52525.45
2023-02-05T21:12:51.408Z,52541.93
2023-02-05T21:15:23.949Z,52533.49
2023-02-05T21:17:54.902Z,52538.31
2023-02-05T21:20:27.803Z,52543.14
2023-02-05T21:23:00.025Z,52552.78
2023-02-05T21:25:31.051Z,52543.95
2023-02-05T21:28:02.206Z,52549.17
2023-02-05T21:30:35.276Z,52534.70
2023-02-05T21:33:07.086Z,52537.51
2023-02-05T21:35:40.189Z,52529.88
2023-02-05T21:38:11.343Z,52527.87
2023-02-05T21:40:44.061Z,52543.54
2023-02-05T21:43:15.156Z,52528.27
2023-02-05T21:45:46.468Z,52547.56
2023-02-05T21:48:17.503Z,52536.30
2023-02-05T21:50:48.633Z,52551.57
2023-02-05T21:53:19.704Z,52551.98
2023-02-05T21:55:50.698Z,52522.64
2023-02-05T21:58:21.967Z,52547.55
2023-02-05T22:00:53.052Z,52541.93
2023-02-05T22:03:24.008Z,52541.93
2023-02-05T22:05:57.734Z,52535.10
2023-02-05T22:08:28.727Z,52543.14
2023-02-05T22:11:02.772Z,52543.94
2023-02-05T22:13:35.207Z,52533.89
2023-02-05T22:16:07.914Z,52531.48
2023-02-05T22:18:39.019Z,52535.50
2023-02-05T22:21:10.574Z,52523.04
2023-02-05T22:23:41.700Z,52526.26
2023-02-05T22:26:12.967Z,52536.30
2023-02-05T22:28:44.176Z,52545.55
2023-02-05T22:31:15.846Z,52529.48
2023-02-05T22:33:47.385Z,52541.13
2023-02-05T22:36:19.553Z,52542.33
2023-02-05T22:38:50.724Z,52555.20
2023-02-05T22:41:23.117Z,52535.50
2023-02-05T22:43:54.578Z,52533.89
2023-02-05T22:46:26.215Z,52547.56
2023-02-05T22:48:57.593Z,52543.14
2023-02-05T22:51:29.603Z,52556.80
2023-02-05T22:54:00.758Z,52540.32
2023-02-05T22:56:32.802Z,52534.29
2023-02-05T22:59:04.011Z,52530.68
2023-02-05T23:01:35.986Z,52546.76
2023-02-05T23:04:07.558Z,52547.96
2023-02-05T23:06:40.042Z,52529.47
2023-02-05T23:09:11.593Z,52541.93
2023-02-05T23:11:43.309Z,52532.69
2023-02-05T23:14:14.978Z,52542.34
2023-02-05T23:16:47.096Z,52532.69
2023-02-05T23:19:19.315Z,52541.13
2023-02-05T23:21:50.960Z,52544.34
2023-02-05T23:24:22.638Z,52559.62
2023-02-05T23:26:54.877Z,52541.13
2023-02-05T23:29:27.367Z,52548.76
2023-02-05T23:31:59.265Z,52543.95
2023-02-05T23:34:32.160Z,52544.34
2023-02-05T23:37:03.554Z,52527.46
2023-02-05T23:39:34.905Z,52537.51
2023-02-05T23:42:06.676Z,52556.80
2023-02-05T23:44:37.890Z,52536.30
2023-02-05T23:47:09.354Z,52528.26
2023-02-05T23:49:40.578Z,52545.14
2023-02-05T23:52:11.730Z,52539.93
2023-02-05T23:54:42.731Z,52541.13
2023-02-05T23:57:14.114Z,52537.11
2023-02-05T23:59:45.069Z,52545.15
